createdAt,value
2017-10-10T00:02:24.083Z,75.00
2017-10-10T00:04:50.726Z,75.00
2017-10-10T00:07:18.176Z,75.10
2017-10-10T00:09:44.840Z,75.00
2017-10-10T00:12:11.473Z,75.10
2017-10-10T00:14:38.131Z,74.90
2017-10-10T00:17:05.155Z,75.00
2017-10-10T00:19:31.775Z,75.00
2017-10-10T00:24:47.291Z,75.00
2017-10-10T00:27:13.943Z,75.10
2017-10-10T00:29:40.567Z,75.10
2017-10-10T00:32:07.214Z,75.10
2017-10-10T00:34:36.771Z,75.10
2017-10-10T00:37:03.414Z,75.10
2017-10-10T00:39:30.038Z,75.20
2017-10-10T00:41:57.053Z,75.30
2017-10-10T00:44:23.704Z,75.30
2017-10-10T00:46:50.337Z,75.20
2017-10-10T00:49:18.098Z,75.20
2017-10-10T00:51:44.723Z,75.00
2017-10-10T00:54:12.883Z,75.20
2017-10-10T00:56:39.499Z,75.10
2017-10-10T00:59:06.167Z,75.00
2017-10-10T01:01:32.827Z,75.20
2017-10-10T01:03:59.443Z,75.20
2017-10-10T01:06:26.087Z,75.20
2017-10-10T01:08:52.723Z,75.20
2017-10-10T01:11:19.371Z,75.20
2017-10-10T01:13:45.986Z,75.20
2017-10-10T01:16:12.628Z,75.30
2017-10-10T01:18:39.248Z,75.30
2017-10-10T01:21:05.896Z,75.10
2017-10-10T01:23:32.519Z,75.20
2017-10-10T01:25:59.534Z,75.20
2017-10-10T01:28:26.174Z,75.20
2017-10-10T01:30:52.823Z,75.30
2017-10-10T01:33:19.467Z,75.30
2017-10-10T01:35:46.091Z,75.30
2017-10-10T01:38:12.752Z,75.30
2017-10-10T01:40:39.370Z,75.40
2017-10-10T01:43:05.992Z,75.40
2017-10-10T01:45:32.634Z,75.40
2017-10-10T01:47:59.260Z,75.50
2017-10-10T01:50:25.902Z,75.40
2017-10-10T01:52:52.557Z,75.40
2017-10-10T01:55:19.208Z,75.40
2017-10-10T01:57:45.831Z,75.30
2017-10-10T02:00:12.450Z,75.40
2017-10-10T02:02:39.101Z,75.40
2017-10-10T02:05:05.723Z,75.40
2017-10-10T02:07:32.370Z,75.40
2017-10-10T02:09:59.040Z,75.50
2017-10-10T02:12:25.687Z,75.40
2017-10-10T02:14:52.307Z,75.40
2017-10-10T02:17:18.947Z,75.50
2017-10-10T02:19:45.566Z,75.50
2017-10-10T02:25:01.607Z,75.30
2017-10-10T02:27:28.232Z,75.30
2017-10-10T02:29:54.876Z,75.30
2017-10-10T02:32:21.495Z,75.40
2017-10-10T02:34:48.151Z,75.40
2017-10-10T02:37:14.772Z,75.50
2017-10-10T02:39:41.415Z,75.30
2017-10-10T02:42:08.771Z,75.40
2017-10-10T02:44:35.421Z,75.40
2017-10-10T02:47:02.047Z,75.60
2017-10-10T02:49:28.667Z,75.50
2017-10-10T02:54:43.685Z,75.40
2017-10-10T02:57:10.311Z,75.40
2017-10-10T02:59:36.931Z,75.50
2017-10-10T03:02:03.967Z,75.50
2017-10-10T03:04:30.587Z,75.50
2017-10-10T03:06:57.238Z,75.40
2017-10-10T03:09:24.635Z,75.50
2017-10-10T03:11:51.292Z,75.50
2017-10-10T03:14:17.915Z,75.60
2017-10-10T03:16:44.555Z,75.50
2017-10-10T03:19:11.211Z,75.50
2017-10-10T03:21:37.833Z,75.50
2017-10-10T03:24:04.479Z,75.60
2017-10-10T03:26:31.106Z,75.50
2017-10-10T03:28:57.747Z,75.60
2017-10-10T03:31:24.371Z,75.50
2017-10-10T03:33:51.407Z,75.60
2017-10-10T03:36:18.031Z,75.60
2017-10-10T03:38:44.687Z,75.60
2017-10-10T03:41:13.314Z,75.60
2017-10-10T03:43:39.955Z,75.60
2017-10-10T03:46:06.595Z,75.60
2017-10-10T03:48:33.212Z,75.60
2017-10-10T03:51:00.255Z,75.60
2017-10-10T03:53:27.289Z,75.50
2017-10-10T03:55:53.935Z,75.50
2017-10-10T03:58:20.558Z,75.50
2017-10-10T04:00:47.217Z,75.60
2017-10-10T04:03:13.843Z,75.60
2017-10-10T04:05:40.487Z,75.60
2017-10-10T04:08:07.154Z,75.80
2017-10-10T04:10:33.783Z,75.60
2017-10-10T04:13:00.846Z,75.70
2017-10-10T04:15:27.863Z,75.70
2017-10-10T04:17:54.564Z,75.70
2017-10-10T04:20:21.715Z,75.80
2017-10-10T04:22:52.016Z,75.70
2017-10-10T04:25:18.639Z,75.70
2017-10-10T04:27:46.578Z,75.70
2017-10-10T04:30:13.228Z,75.70
2017-10-10T04:32:39.872Z,75.70
2017-10-10T04:35:06.520Z,75.70
2017-10-10T04:37:33.143Z,75.70
2017-10-10T04:39:59.812Z,75.80
2017-10-10T04:42:26.431Z,75.80
2017-10-10T04:44:53.091Z,75.80
2017-10-10T04:47:19.715Z,75.70
2017-10-10T04:49:46.339Z,75.70
2017-10-10T04:55:01.635Z,75.80
2017-10-10T04:57:28.310Z,75.80
2017-10-10T04:59:55.331Z,75.80
2017-10-10T05:02:21.976Z,75.80
2017-10-10T05:04:48.599Z,75.80
2017-10-10T05:07:15.260Z,75.80
2017-10-10T05:09:41.895Z,75.80
2017-10-10T05:12:08.528Z,75.80
2017-10-10T05:14:35.171Z,75.90
2017-10-10T05:17:01.815Z,76.00
2017-10-10T05:19:28.460Z,75.90
2017-10-10T05:24:44.258Z,76.00
2017-10-10T05:27:10.899Z,75.90
2017-10-10T05:29:37.548Z,76.00
2017-10-10T05:32:04.171Z,76.00
2017-10-10T05:34:30.813Z,75.90
2017-10-10T05:36:57.462Z,76.00
2017-10-10T05:39:24.088Z,76.10
2017-10-10T05:41:50.740Z,76.00
2017-10-10T05:44:17.407Z,76.00
2017-10-10T05:46:44.060Z,76.10
2017-10-10T05:49:10.705Z,76.10
2017-10-10T05:51:37.982Z,76.10
2017-10-10T05:54:04.638Z,76.10
2017-10-10T05:56:31.262Z,76.10
2017-10-10T05:58:57.904Z,76.10
2017-10-10T06:01:24.527Z,76.10
2017-10-10T06:03:51.183Z,76.10
2017-10-10T06:06:17.812Z,76.10
2017-10-10T06:08:44.434Z,76.20
2017-10-10T06:11:11.079Z,76.20
2017-10-10T06:13:37.707Z,76.20
2017-10-10T06:16:04.349Z,76.20
2017-10-10T06:18:30.971Z,76.20
2017-10-10T06:20:58.448Z,76.10
2017-10-10T06:23:25.076Z,76.10
2017-10-10T06:25:52.104Z,76.10
2017-10-10T06:28:18.764Z,76.10
2017-10-10T06:30:45.781Z,76.20
2017-10-10T06:33:12.431Z,76.20
2017-10-10T06:35:39.072Z,76.20
2017-10-10T06:38:05.723Z,76.20
2017-10-10T06:40:32.744Z,76.30
2017-10-10T06:42:59.461Z,76.30
2017-10-10T06:45:26.104Z,76.50
2017-10-10T06:47:52.727Z,76.50
2017-10-10T06:50:19.383Z,76.30
2017-10-10T06:52:56.257Z,76.40
2017-10-10T06:55:22.909Z,76.30
2017-10-10T06:57:49.536Z,76.40
2017-10-10T07:00:16.161Z,76.50
2017-10-10T07:02:42.827Z,76.30
2017-10-10T07:05:09.447Z,76.60
2017-10-10T07:07:36.089Z,76.50
2017-10-10T07:10:02.712Z,76.50
2017-10-10T07:12:29.407Z,76.60
2017-10-10T07:14:56.030Z,76.60
2017-10-10T07:17:22.659Z,76.70
2017-10-10T07:19:49.315Z,76.60
2017-10-10T07:22:15.937Z,76.70
2017-10-10T07:24:42.579Z,76.70
2017-10-10T07:27:09.203Z,76.70
2017-10-10T07:29:35.843Z,77.20
2017-10-10T07:32:02.473Z,76.80
2017-10-10T07:34:29.183Z,76.80
2017-10-10T07:36:55.826Z,76.80
2017-10-10T07:39:22.456Z,76.90
2017-10-10T07:41:49.091Z,76.90
2017-10-10T07:44:15.711Z,77.00
2017-10-10T07:46:42.371Z,77.00
2017-10-10T07:49:09.675Z,76.90
2017-10-10T07:51:36.324Z,76.80
2017-10-10T07:54:04.279Z,76.70
2017-10-10T07:56:30.900Z,76.80
2017-10-10T07:58:57.938Z,76.90
2017-10-10T08:01:24.558Z,76.90
2017-10-10T08:03:51.214Z,76.90
2017-10-10T08:06:17.843Z,76.90
2017-10-10T08:08:44.507Z,77.00
2017-10-10T08:11:11.123Z,77.00
2017-10-10T08:13:37.793Z,77.30
2017-10-10T08:16:04.811Z,77.00
2017-10-10T08:18:31.442Z,77.00
2017-10-10T08:20:58.083Z,77.00
2017-10-10T08:23:24.723Z,77.20
2017-10-10T08:25:51.372Z,77.30
2017-10-10T08:28:17.996Z,77.30
2017-10-10T08:30:44.654Z,77.50
2017-10-10T08:33:11.287Z,77.40
2017-10-10T08:35:37.941Z,77.20
2017-10-10T08:38:04.571Z,77.20
2017-10-10T08:40:31.195Z,77.20
2017-10-10T08:42:57.847Z,77.20
2017-10-10T08:45:24.491Z,77.30
2017-10-10T08:47:51.139Z,77.40
2017-10-10T08:50:17.763Z,77.20
2017-10-10T08:52:44.406Z,77.20
2017-10-10T08:55:11.035Z,77.30
2017-10-10T08:57:37.703Z,77.40
2017-10-10T09:00:04.738Z,77.40
2017-10-10T09:02:31.372Z,77.40
2017-10-10T09:04:58.048Z,77.50
2017-10-10T09:07:24.667Z,77.50
2017-10-10T09:09:51.318Z,77.40
2017-10-10T09:12:17.939Z,77.40
2017-10-10T09:14:44.583Z,77.40
2017-10-10T09:17:11.203Z,77.60
2017-10-10T09:19:37.859Z,77.40
2017-10-10T09:24:53.430Z,77.40
2017-10-10T09:27:20.063Z,77.50
2017-10-10T09:29:46.691Z,77.40
2017-10-10T09:32:13.368Z,77.40
2017-10-10T09:34:40.005Z,77.40
2017-10-10T09:37:06.659Z,77.60
2017-10-10T09:39:33.287Z,77.50
2017-10-10T09:41:59.931Z,77.50
2017-10-10T09:44:26.635Z,77.50
2017-10-10T09:46:53.294Z,77.40
2017-10-10T09:49:19.914Z,77.50
2017-10-10T09:51:46.548Z,77.60
2017-10-10T09:54:13.197Z,77.70
2017-10-10T09:56:39.818Z,77.60
2017-10-10T09:59:07.031Z,77.60
2017-10-10T10:01:34.123Z,77.60
2017-10-10T10:04:00.783Z,77.50
2017-10-10T10:06:27.404Z,77.50
2017-10-10T10:08:54.041Z,77.70
2017-10-10T10:11:20.691Z,77.90
2017-10-10T10:13:47.320Z,77.90
2017-10-10T10:16:13.958Z,77.80
2017-10-10T10:18:40.619Z,77.70
2017-10-10T10:21:07.258Z,77.70
2017-10-10T10:23:33.876Z,77.80
2017-10-10T10:26:00.547Z,77.80
2017-10-10T10:28:27.189Z,77.80
2017-10-10T10:30:53.811Z,77.90
2017-10-10T10:33:20.459Z,77.90
2017-10-10T10:35:47.078Z,77.80
2017-10-10T10:38:13.731Z,77.90
2017-10-10T10:40:40.351Z,77.90
2017-10-10T10:43:07.023Z,77.80
2017-10-10T10:45:33.649Z,77.90
2017-10-10T10:48:00.378Z,77.70
2017-10-10T10:50:27.016Z,77.90
2017-10-10T10:52:57.599Z,78.00
2017-10-10T10:55:24.248Z,77.90
2017-10-10T10:57:50.867Z,77.90
2017-10-10T11:00:17.511Z,78.00
2017-10-10T11:02:44.130Z,77.90
2017-10-10T11:05:10.775Z,77.90
2017-10-10T11:07:37.396Z,78.00
2017-10-10T11:10:04.051Z,77.90
2017-10-10T11:12:30.667Z,78.10
2017-10-10T11:14:57.306Z,78.30
2017-10-10T11:17:23.967Z,77.90
2017-10-10T11:19:50.583Z,78.10
2017-10-10T11:25:06.344Z,77.90
2017-10-10T11:27:32.994Z,77.90
2017-10-10T11:29:59.631Z,77.90
2017-10-10T11:32:26.323Z,78.00
2017-10-10T11:34:52.953Z,78.10
2017-10-10T11:37:19.607Z,78.20
2017-10-10T11:39:46.242Z,78.00
2017-10-10T11:42:12.873Z,78.00
2017-10-10T11:44:39.520Z,78.00
2017-10-10T11:47:06.139Z,78.20
2017-10-10T11:49:33.289Z,78.20
2017-10-10T11:54:49.406Z,78.20
2017-10-10T11:57:16.023Z,78.20
2017-10-10T11:59:42.660Z,78.10
2017-10-10T12:02:09.303Z,77.90
2017-10-10T12:04:35.947Z,78.10
2017-10-10T12:07:02.610Z,78.10
2017-10-10T12:09:29.236Z,78.30
2017-10-10T12:11:56.268Z,78.30
2017-10-10T12:14:22.893Z,78.30
2017-10-10T12:16:49.559Z,78.30
2017-10-10T12:19:16.183Z,78.40
2017-10-10T12:21:42.821Z,78.10
2017-10-10T12:24:09.467Z,78.30
2017-10-10T12:26:36.103Z,78.40
2017-10-10T12:29:02.750Z,78.70
2017-10-10T12:31:29.367Z,78.40
2017-10-10T12:33:56.035Z,78.40
2017-10-10T12:36:22.647Z,78.40
2017-10-10T12:38:49.280Z,78.40
2017-10-10T12:41:15.944Z,78.30
2017-10-10T12:43:42.578Z,78.40
2017-10-10T12:46:09.227Z,78.30
2017-10-10T12:48:36.599Z,78.50
2017-10-10T12:51:03.243Z,78.40
2017-10-10T12:53:30.276Z,78.70
2017-10-10T12:55:56.914Z,78.70
2017-10-10T12:58:23.556Z,78.40
2017-10-10T13:00:50.207Z,78.60
2017-10-10T13:03:17.575Z,78.50
2017-10-10T13:05:44.698Z,78.50
2017-10-10T13:08:11.355Z,78.50
2017-10-10T13:10:38.295Z,78.30
2017-10-10T13:13:04.928Z,78.40
2017-10-10T13:15:31.579Z,78.50
2017-10-10T13:17:58.638Z,78.60
2017-10-10T13:20:25.259Z,78.60
2017-10-10T13:22:58.329Z,78.50
2017-10-10T13:25:24.959Z,78.50
2017-10-10T13:27:51.612Z,78.50
2017-10-10T13:30:18.241Z,78.50
2017-10-10T13:32:44.907Z,78.40
2017-10-10T13:35:12.200Z,78.30
2017-10-10T13:37:38.834Z,78.40
2017-10-10T13:40:05.475Z,78.40
2017-10-10T13:42:32.097Z,78.40
2017-10-10T13:44:59.157Z,78.50
2017-10-10T13:47:26.175Z,78.50
2017-10-10T13:49:52.829Z,78.50
2017-10-10T13:55:08.216Z,78.40
2017-10-10T13:57:34.851Z,78.50
2017-10-10T14:00:01.499Z,78.40
2017-10-10T14:02:28.122Z,78.40
2017-10-10T14:04:54.812Z,78.40
2017-10-10T14:07:21.429Z,78.40
2017-10-10T14:09:48.072Z,78.40
2017-10-10T14:12:15.124Z,78.50
2017-10-10T14:14:42.183Z,78.50
2017-10-10T14:17:08.808Z,78.50
2017-10-10T14:19:35.837Z,78.60
2017-10-10T14:24:50.840Z,78.50
2017-10-10T14:27:17.904Z,78.40
2017-10-10T14:29:44.924Z,78.40
2017-10-10T14:32:11.712Z,78.40
2017-10-10T14:34:38.332Z,78.40
2017-10-10T14:37:05.399Z,78.50
2017-10-10T14:39:32.036Z,78.50
2017-10-10T14:41:58.671Z,78.60
2017-10-10T14:44:25.318Z,78.60
2017-10-10T14:46:51.934Z,78.70
2017-10-10T14:49:18.975Z,78.40
2017-10-10T14:51:45.595Z,78.40
2017-10-10T14:54:12.259Z,78.60
2017-10-10T14:56:38.871Z,78.40
2017-10-10T14:59:05.519Z,78.50
2017-10-10T15:01:32.163Z,78.50
2017-10-10T15:03:58.846Z,78.60
2017-10-10T15:06:25.463Z,78.60
2017-10-10T15:08:52.480Z,78.70
2017-10-10T15:11:19.126Z,78.70
2017-10-10T15:13:45.771Z,78.60
2017-10-10T15:16:12.413Z,78.60
2017-10-10T15:18:39.031Z,78.80
2017-10-10T15:21:05.690Z,78.60
2017-10-10T15:23:32.318Z,78.60
2017-10-10T15:25:59.499Z,78.50
2017-10-10T15:28:26.471Z,78.70
2017-10-10T15:30:53.095Z,78.60
2017-10-10T15:33:20.142Z,78.70
2017-10-10T15:35:46.786Z,78.70
2017-10-10T15:38:13.830Z,78.60
2017-10-10T15:40:40.851Z,78.50
2017-10-10T15:43:07.510Z,78.50
2017-10-10T15:45:34.143Z,78.60
2017-10-10T15:48:00.789Z,78.60
2017-10-10T15:50:27.435Z,78.50
2017-10-10T15:53:03.884Z,78.60
2017-10-10T15:55:30.576Z,78.60
2017-10-10T15:57:57.206Z,78.50
2017-10-10T16:00:23.860Z,78.70
2017-10-10T16:02:50.515Z,78.70
2017-10-10T16:05:17.187Z,78.60
2017-10-10T16:07:43.822Z,78.60
2017-10-10T16:10:10.475Z,78.60
2017-10-10T16:12:37.107Z,78.60
2017-10-10T16:15:03.733Z,78.70
2017-10-10T16:17:31.000Z,78.70
2017-10-10T16:19:57.651Z,78.60
2017-10-10T16:25:13.868Z,78.60
2017-10-10T16:27:40.515Z,78.70
2017-10-10T16:30:07.534Z,78.70
2017-10-10T16:32:34.180Z,78.80
2017-10-10T16:35:00.827Z,78.60
2017-10-10T16:37:27.455Z,78.90
2017-10-10T16:39:54.099Z,78.70
2017-10-10T16:42:21.465Z,78.80
2017-10-10T16:44:48.125Z,78.90
2017-10-10T16:47:15.138Z,78.70
2017-10-10T16:49:41.792Z,78.70
2017-10-10T16:54:58.021Z,78.80
2017-10-10T16:57:24.648Z,78.80
2017-10-10T16:59:51.315Z,78.80
2017-10-10T17:02:17.939Z,78.80
2017-10-10T17:04:44.560Z,78.90
2017-10-10T17:07:11.219Z,78.90
2017-10-10T17:09:37.851Z,79.00
2017-10-10T17:12:04.487Z,78.80
2017-10-10T17:14:31.115Z,78.90
2017-10-10T17:16:57.788Z,78.90
2017-10-10T17:19:25.840Z,78.80
2017-10-10T17:21:52.483Z,78.90
2017-10-10T17:24:19.107Z,78.80
2017-10-10T17:26:45.759Z,78.80
2017-10-10T17:29:14.019Z,78.80
2017-10-10T17:31:40.679Z,78.80
2017-10-10T17:34:07.311Z,79.00
2017-10-10T17:36:33.955Z,78.90
2017-10-10T17:39:00.599Z,78.90
2017-10-10T17:41:27.240Z,79.10
2017-10-10T17:43:53.872Z,78.90
2017-10-10T17:46:20.735Z,79.10
2017-10-10T17:48:47.759Z,79.00
2017-10-10T17:51:14.386Z,79.00
2017-10-10T17:53:41.056Z,78.90
2017-10-10T17:56:07.684Z,78.90
2017-10-10T17:58:34.331Z,79.10
2017-10-10T18:01:00.974Z,78.90
2017-10-10T18:03:27.643Z,79.10
2017-10-10T18:05:54.272Z,79.00
2017-10-10T18:08:21.310Z,79.20
2017-10-10T18:10:47.986Z,79.20
2017-10-10T18:13:14.643Z,79.00
2017-10-10T18:15:41.270Z,79.20
2017-10-10T18:18:07.927Z,79.00
2017-10-10T18:20:34.559Z,79.10
2017-10-10T18:23:01.259Z,79.00
2017-10-10T18:25:28.278Z,79.10
2017-10-10T18:27:54.924Z,79.10
2017-10-10T18:30:21.572Z,79.00
2017-10-10T18:32:48.227Z,79.30
2017-10-10T18:35:14.859Z,79.30
2017-10-10T18:37:41.487Z,79.20
2017-10-10T18:40:08.137Z,79.20
2017-10-10T18:42:34.759Z,79.30
2017-10-10T18:45:01.417Z,79.30
2017-10-10T18:47:28.039Z,79.20
2017-10-10T18:49:54.679Z,79.30
2017-10-10T18:52:21.328Z,79.20
2017-10-10T18:54:48.724Z,79.40
2017-10-10T18:57:15.351Z,79.10
2017-10-10T18:59:42.256Z,79.40
2017-10-10T19:02:08.875Z,79.30
2017-10-10T19:04:35.551Z,79.40
2017-10-10T19:07:02.175Z,79.60
2017-10-10T19:09:28.791Z,79.30
2017-10-10T19:11:55.442Z,79.30
2017-10-10T19:14:22.178Z,79.40
2017-10-10T19:16:48.943Z,79.40
2017-10-10T19:19:15.567Z,79.50
2017-10-10T19:21:42.207Z,79.60
2017-10-10T19:24:08.835Z,79.40
2017-10-10T19:26:35.512Z,79.50
2017-10-10T19:29:02.151Z,79.60
2017-10-10T19:31:28.776Z,79.60
2017-10-10T19:33:55.536Z,79.60
2017-10-10T19:36:22.167Z,79.70
2017-10-10T19:38:48.811Z,79.70
2017-10-10T19:41:15.431Z,79.80
2017-10-10T19:43:42.079Z,79.60
2017-10-10T19:46:08.703Z,79.70
2017-10-10T19:48:35.323Z,79.60
2017-10-10T19:51:01.968Z,79.70
2017-10-10T19:53:28.608Z,79.70
2017-10-10T19:55:55.259Z,79.60
2017-10-10T19:58:22.280Z,79.50
2017-10-10T20:00:48.956Z,79.80
2017-10-10T20:03:15.583Z,79.50
2017-10-10T20:05:42.206Z,79.40
2017-10-10T20:08:08.852Z,79.50
2017-10-10T20:10:35.471Z,79.60
2017-10-10T20:13:02.114Z,79.60
2017-10-10T20:15:28.756Z,79.60
2017-10-10T20:17:55.399Z,79.70
2017-10-10T20:20:22.019Z,79.60
2017-10-10T20:25:33.423Z,79.60
2017-10-10T20:28:00.500Z,79.70
2017-10-10T20:30:27.118Z,79.70
2017-10-10T20:32:54.136Z,79.70
2017-10-10T20:35:20.783Z,79.70
2017-10-10T20:37:47.413Z,79.70
2017-10-10T20:40:14.695Z,79.90
2017-10-10T20:42:41.711Z,79.80
2017-10-10T20:45:09.919Z,79.90
2017-10-10T20:47:36.939Z,79.60
2017-10-10T20:50:03.599Z,79.60
2017-10-10T20:55:18.924Z,79.70
2017-10-10T20:57:45.545Z,79.70
2017-10-10T21:00:13.444Z,79.70
2017-10-10T21:02:40.084Z,79.70
2017-10-10T21:05:06.712Z,79.70
2017-10-10T21:07:33.359Z,79.80
2017-10-10T21:09:59.978Z,79.90
2017-10-10T21:12:27.022Z,79.90
2017-10-10T21:14:54.035Z,79.80
2017-10-10T21:17:20.703Z,79.80
2017-10-10T21:19:47.732Z,79.70
2017-10-10T21:25:02.940Z,79.90
2017-10-10T21:27:29.567Z,79.90
2017-10-10T21:29:56.215Z,79.70
2017-10-10T21:32:22.839Z,79.80
2017-10-10T21:34:49.487Z,79.90
2017-10-10T21:37:16.130Z,79.90
2017-10-10T21:39:42.775Z,79.90
2017-10-10T21:42:09.408Z,79.80
2017-10-10T21:44:36.075Z,79.70
2017-10-10T21:47:03.124Z,79.90
2017-10-10T21:49:30.152Z,79.70
2017-10-10T21:51:56.804Z,79.70
2017-10-10T21:54:23.839Z,79.90
2017-10-10T21:56:50.499Z,79.80
2017-10-10T21:59:17.522Z,79.70
2017-10-10T22:01:44.171Z,79.70
2017-10-10T22:04:10.792Z,79.90
2017-10-10T22:06:37.451Z,79.80
2017-10-10T22:09:04.075Z,79.90
2017-10-10T22:11:30.695Z,79.80
2017-10-10T22:13:57.340Z,79.90
2017-10-10T22:16:23.967Z,79.90
2017-10-10T22:18:50.610Z,79.80
2017-10-10T22:21:17.491Z,79.80
2017-10-10T22:23:44.544Z,79.80
2017-10-10T22:26:11.175Z,79.90
2017-10-10T22:28:37.827Z,79.90
2017-10-10T22:31:04.465Z,79.80
2017-10-10T22:33:31.112Z,79.70
2017-10-10T22:35:58.147Z,79.90
2017-10-10T22:38:24.799Z,79.90
2017-10-10T22:40:51.428Z,79.70
2017-10-10T22:43:18.104Z,79.70
2017-10-10T22:45:44.746Z,79.90
2017-10-10T22:48:11.395Z,79.70
2017-10-10T22:50:38.034Z,79.60
2017-10-10T22:53:04.703Z,79.90
2017-10-10T22:55:31.334Z,79.90
2017-10-10T22:57:57.958Z,79.90
2017-10-10T23:00:24.603Z,79.70
2017-10-10T23:02:51.294Z,79.90
2017-10-10T23:05:19.831Z,79.90
2017-10-10T23:07:46.465Z,79.80
2017-10-10T23:10:13.124Z,79.90
2017-10-10T23:12:39.743Z,79.90
2017-10-10T23:15:06.392Z,80.00
2017-10-10T23:17:33.588Z,80.10
2017-10-10T23:20:00.223Z,80.00
2017-10-10T23:22:26.875Z,80.00
2017-10-10T23:24:53.499Z,79.90
2017-10-10T23:27:20.768Z,79.80
2017-10-10T23:29:47.399Z,80.00
2017-10-10T23:32:14.059Z,79.90
2017-10-10T23:34:41.088Z,80.00
2017-10-10T23:37:07.715Z,80.00
2017-10-10T23:39:34.360Z,80.00
2017-10-10T23:42:01.007Z,79.90
2017-10-10T23:44:27.653Z,79.90
2017-10-10T23:46:54.278Z,80.00
2017-10-10T23:49:20.935Z,79.90
2017-10-10T23:51:47.559Z,80.00
2017-10-10T23:54:14.210Z,80.00
2017-10-10T23:56:40.843Z,79.90
2017-10-10T23:59:07.511Z,80.10
